createdAt,value
2019-05-28T00:01:09.235Z,9.93
2019-05-28T00:03:37.693Z,8.60
2019-05-28T00:06:06.153Z,9.85
2019-05-28T00:08:34.870Z,10.55
2019-05-28T00:11:05.164Z,9.90
2019-05-28T00:13:33.698Z,10.10
2019-05-28T00:16:02.270Z,11.20
2019-05-28T00:18:30.736Z,10.60
2019-05-28T00:21:08.554Z,10.45
2019-05-28T00:23:37.087Z,10.70
2019-05-28T00:26:05.719Z,10.00
2019-05-28T00:28:34.287Z,10.50
2019-05-28T00:31:11.849Z,9.55
2019-05-28T00:33:40.334Z,9.63
2019-05-28T00:36:08.836Z,8.88
2019-05-28T00:38:37.338Z,8.20
2019-05-28T00:41:05.878Z,7.85
2019-05-28T00:43:34.336Z,9.00
2019-05-28T00:46:02.796Z,8.30
2019-05-28T00:48:31.603Z,8.33
2019-05-28T00:51:06.331Z,8.45
2019-05-28T00:53:34.790Z,8.18
2019-05-28T00:56:03.780Z,8.58
2019-05-28T00:58:33.529Z,8.43
2019-05-28T01:01:05.271Z,8.15
2019-05-28T01:03:33.919Z,8.28
2019-05-28T01:06:02.378Z,8.03
2019-05-28T01:08:30.856Z,7.87
2019-05-28T01:10:59.510Z,9.00
2019-05-28T01:13:28.101Z,8.28
2019-05-28T01:15:59.685Z,8.20
2019-05-28T01:18:28.329Z,8.63
2019-05-28T01:20:56.857Z,8.25
2019-05-28T01:23:25.363Z,8.05
2019-05-28T01:25:53.847Z,8.00
2019-05-28T01:28:22.373Z,8.43
2019-05-28T01:30:57.616Z,8.90
2019-05-28T01:33:23.438Z,8.85
2019-05-28T01:35:51.887Z,8.95
2019-05-28T01:38:24.127Z,8.55
2019-05-28T01:40:52.798Z,8.55
2019-05-28T01:43:21.253Z,8.38
2019-05-28T01:45:49.741Z,8.83
2019-05-28T01:48:18.381Z,9.08
2019-05-28T01:50:46.828Z,9.78
2019-05-28T01:53:15.279Z,11.18
2019-05-28T01:56:06.001Z,12.73
2019-05-28T01:58:34.457Z,12.55
2019-05-28T02:01:12.587Z,12.78
2019-05-28T02:03:36.646Z,12.93
2019-05-28T02:06:05.183Z,12.65
2019-05-28T02:08:33.692Z,12.47
2019-05-28T02:11:14.398Z,13.18
2019-05-28T02:13:42.882Z,12.60
2019-05-28T02:16:11.343Z,11.73
2019-05-28T02:18:39.822Z,11.85
2019-05-28T02:21:16.330Z,11.90
2019-05-28T02:23:44.898Z,10.28
2019-05-28T02:26:13.346Z,12.15
2019-05-28T02:28:44.896Z,9.00
2019-05-28T02:31:27.418Z,9.15
2019-05-28T02:33:46.802Z,9.50
2019-05-28T02:36:15.251Z,8.03
2019-05-28T02:38:44.071Z,8.43
2019-05-28T02:41:18.630Z,7.90
2019-05-28T02:43:47.117Z,8.45
2019-05-28T02:46:15.733Z,9.03
2019-05-28T02:48:44.262Z,8.60
2019-05-28T02:51:26.089Z,8.43
2019-05-28T02:53:54.608Z,8.20
2019-05-28T02:56:26.282Z,8.33
2019-05-28T02:58:57.783Z,9.03
2019-05-28T03:01:43.587Z,9.23
2019-05-28T03:04:05.467Z,10.43
2019-05-28T03:06:35.964Z,12.00
2019-05-28T03:09:06.744Z,13.03
2019-05-28T03:11:50.436Z,13.33
2019-05-28T03:14:18.983Z,13.70
2019-05-28T03:17:00.110Z,15.50
2019-05-28T03:19:30.804Z,14.87
2019-05-28T03:22:02.889Z,16.85
2019-05-28T03:24:33.343Z,17.65
2019-05-28T03:27:01.882Z,18.42
2019-05-28T03:29:30.546Z,17.27
2019-05-28T03:32:16.568Z,16.67
2019-05-28T03:34:45.085Z,17.12
2019-05-28T03:37:18.017Z,17.40
2019-05-28T03:39:53.172Z,19.45
2019-05-28T03:42:21.762Z,18.45
2019-05-28T03:44:50.297Z,19.42
2019-05-28T03:47:21.996Z,20.32
2019-05-28T03:52:23.354Z,20.15
2019-05-28T03:54:52.114Z,21.48
2019-05-28T03:57:20.583Z,20.15
2019-05-28T03:59:49.031Z,20.65
2019-05-28T04:02:28.922Z,21.77
2019-05-28T04:04:57.487Z,21.48
2019-05-28T04:07:26.018Z,21.52
2019-05-28T04:10:22.316Z,23.27
2019-05-28T04:12:50.772Z,21.57
2019-05-28T04:15:19.304Z,22.62
2019-05-28T04:17:47.986Z,23.47
2019-05-28T04:20:18.043Z,22.90
2019-05-28T04:22:46.546Z,23.47
2019-05-28T04:25:15.263Z,24.07
2019-05-28T04:28:03.380Z,23.27
2019-05-28T04:30:31.936Z,23.30
2019-05-28T04:33:00.432Z,24.60
2019-05-28T04:35:28.937Z,25.37
2019-05-28T04:37:57.621Z,24.57
2019-05-28T04:40:26.261Z,26.80
2019-05-28T04:42:54.777Z,25.82
2019-05-28T04:45:23.281Z,25.65
2019-05-28T04:47:51.814Z,25.95
2019-05-28T04:50:20.417Z,19.67
2019-05-28T04:53:04.084Z,11.38
2019-05-28T04:55:32.608Z,9.93
2019-05-28T04:58:01.063Z,9.90
2019-05-28T05:00:29.767Z,9.08
2019-05-28T05:03:00.562Z,7.25
2019-05-28T05:05:28.444Z,6.45
2019-05-28T05:07:56.928Z,5.72
2019-05-28T05:10:26.478Z,5.50
2019-05-28T05:12:54.925Z,6.58
2019-05-28T05:15:23.486Z,6.87
2019-05-28T05:17:52.118Z,6.28
2019-05-28T05:20:20.569Z,6.97
2019-05-28T05:22:49.149Z,6.87
2019-05-28T05:25:17.693Z,7.90
2019-05-28T05:27:46.212Z,8.35
2019-05-28T05:30:15.125Z,9.60
2019-05-28T05:32:49.888Z,8.88
2019-05-28T05:35:18.402Z,9.25
2019-05-28T05:37:46.969Z,8.70
2019-05-28T05:40:22.040Z,8.50
2019-05-28T05:42:50.598Z,8.95
2019-05-28T05:45:19.390Z,7.90
2019-05-28T05:47:53.093Z,7.60
2019-05-28T05:50:21.823Z,8.00
2019-05-28T05:52:53.336Z,7.08
2019-05-28T05:55:21.896Z,6.47
2019-05-28T05:57:50.532Z,6.65
2019-05-28T06:00:19.442Z,6.80
2019-05-28T06:02:50.900Z,5.15
2019-05-28T06:05:19.688Z,5.95
2019-05-28T06:07:48.153Z,4.95
2019-05-28T06:10:17.188Z,6.28
2019-05-28T06:12:45.782Z,4.60
2019-05-28T06:15:14.313Z,4.62
2019-05-28T06:17:42.781Z,4.42
2019-05-28T06:20:12.010Z,5.60
2019-05-28T06:22:40.491Z,5.95
2019-05-28T06:25:09.387Z,6.50
2019-05-28T06:27:38.182Z,8.03
2019-05-28T06:30:08.545Z,9.20
2019-05-28T06:32:38.702Z,8.88
2019-05-28T06:35:08.591Z,9.15
2019-05-28T06:37:37.131Z,10.05
2019-05-28T06:40:07.874Z,9.05
2019-05-28T06:42:40.101Z,9.80
2019-05-28T06:45:09.335Z,9.60
2019-05-28T06:47:37.889Z,9.55
2019-05-28T06:50:10.590Z,10.23
2019-05-28T06:52:41.484Z,10.10
2019-05-28T06:55:10.186Z,11.05
2019-05-28T06:57:38.744Z,11.75
2019-05-28T07:00:08.484Z,8.90
2019-05-28T07:02:37.088Z,10.53
2019-05-28T07:05:08.691Z,10.60
2019-05-28T07:07:37.167Z,10.32
2019-05-28T07:10:08.983Z,10.50
2019-05-28T07:15:07.168Z,5.00
2019-05-28T07:17:35.759Z,5.90
2019-05-28T07:20:07.228Z,5.70
2019-05-28T07:22:36.175Z,5.75
2019-05-28T07:25:07.091Z,6.20
2019-05-28T07:27:37.537Z,6.40
2019-05-28T07:30:10.323Z,5.62
2019-05-28T07:32:38.945Z,4.97
2019-05-28T07:35:07.810Z,6.40
2019-05-28T07:37:36.265Z,4.67
2019-05-28T07:40:12.065Z,3.75
2019-05-28T07:42:40.801Z,3.35
2019-05-28T07:45:09.899Z,2.30
2019-05-28T07:47:38.727Z,2.30
2019-05-28T07:50:08.205Z,2.75
2019-05-28T07:52:39.045Z,2.65
2019-05-28T07:55:08.226Z,3.10
2019-05-28T07:57:36.762Z,3.70
2019-05-28T08:00:09.140Z,4.20
2019-05-28T08:02:49.917Z,4.70
2019-05-28T08:05:18.500Z,4.60
2019-05-28T08:07:47.029Z,4.87
2019-05-28T08:10:21.951Z,4.60
2019-05-28T08:12:50.628Z,4.50
2019-05-28T08:15:19.195Z,4.60
2019-05-28T08:17:47.835Z,4.20
2019-05-28T08:20:18.569Z,3.92
2019-05-28T08:22:46.695Z,4.33
2019-05-28T08:25:33.027Z,4.17
2019-05-28T08:27:45.427Z,3.55
2019-05-28T08:30:14.097Z,5.08
2019-05-28T08:32:42.779Z,4.60
2019-05-28T08:35:11.566Z,3.60
2019-05-28T08:37:40.111Z,3.37
2019-05-28T08:40:51.332Z,3.75
2019-05-28T08:43:19.855Z,4.55
2019-05-28T08:45:48.492Z,4.05
2019-05-28T08:48:17.335Z,3.75
2019-05-28T08:50:46.095Z,3.62
2019-05-28T08:53:14.671Z,3.25
2019-05-28T08:55:45.647Z,3.50
2019-05-28T08:58:14.194Z,4.07
2019-05-28T09:00:47.294Z,3.75
2019-05-28T09:03:15.927Z,4.30
2019-05-28T09:05:44.547Z,4.50
2019-05-28T09:08:13.195Z,3.80
2019-05-28T09:10:41.911Z,4.00
2019-05-28T09:13:10.435Z,3.42
2019-05-28T09:15:38.993Z,3.27
2019-05-28T09:18:31.681Z,3.27
2019-05-28T09:21:00.179Z,3.10
2019-05-28T09:23:28.729Z,3.22
2019-05-28T09:25:57.454Z,2.80
2019-05-28T09:28:30.745Z,2.87
2019-05-28T09:30:56.155Z,3.05
2019-05-28T09:33:24.706Z,2.70
2019-05-28T09:36:07.247Z,3.12
2019-05-28T09:38:23.427Z,2.95
2019-05-28T09:41:05.491Z,2.83
2019-05-28T09:43:31.908Z,3.15
2019-05-28T09:46:00.355Z,3.62
2019-05-28T09:48:28.831Z,3.12
2019-05-28T09:51:09.911Z,3.70
2019-05-28T09:53:38.462Z,2.73
2019-05-28T09:56:22.346Z,2.90
2019-05-28T09:59:10.197Z,2.75
2019-05-28T10:01:54.295Z,2.77
2019-05-28T10:04:42.875Z,2.60
2019-05-28T10:06:53.243Z,3.05
2019-05-28T10:09:21.737Z,3.15
2019-05-28T10:11:53.471Z,3.77
2019-05-28T10:16:49.763Z,3.12
2019-05-28T10:19:18.462Z,3.05
2019-05-28T10:21:56.249Z,3.22
2019-05-28T10:24:24.786Z,3.67
2019-05-28T10:26:53.239Z,3.58
2019-05-28T10:29:21.696Z,4.30
2019-05-28T10:31:50.214Z,3.90
2019-05-28T10:34:18.826Z,4.10
2019-05-28T10:36:49.413Z,3.87
2019-05-28T10:39:18.054Z,4.08
2019-05-28T10:41:46.692Z,4.08
2019-05-28T10:44:15.236Z,4.05
2019-05-28T10:46:43.898Z,3.80
2019-05-28T10:49:12.406Z,4.60
2019-05-28T10:51:41.027Z,3.83
2019-05-28T10:54:09.628Z,4.50
2019-05-28T10:56:38.215Z,4.90
2019-05-28T10:59:06.765Z,4.45
2019-05-28T11:01:35.404Z,4.22
2019-05-28T11:04:04.400Z,4.90
2019-05-28T11:06:32.927Z,4.42
2019-05-28T11:09:01.464Z,4.37
2019-05-28T11:11:32.171Z,3.85
2019-05-28T11:14:01.261Z,4.80
2019-05-28T11:16:29.751Z,4.83
2019-05-28T11:19:10.534Z,4.17
2019-05-28T11:21:39.153Z,4.17
2019-05-28T11:24:07.682Z,4.50
2019-05-28T11:26:45.647Z,4.40
2019-05-28T11:29:14.110Z,4.80
2019-05-28T11:31:48.663Z,4.70
2019-05-28T11:34:17.130Z,4.50
2019-05-28T11:36:45.584Z,4.17
2019-05-28T11:39:14.181Z,4.83
2019-05-28T11:41:45.876Z,4.80
2019-05-28T11:44:14.397Z,4.53
2019-05-28T11:46:42.895Z,4.65
2019-05-28T11:49:11.529Z,4.37
2019-05-28T11:51:52.099Z,4.12
2019-05-28T11:54:20.799Z,4.20
2019-05-28T11:56:49.282Z,4.35
2019-05-28T11:59:17.899Z,4.10
2019-05-28T12:01:46.559Z,3.72
2019-05-28T12:04:15.077Z,3.80
2019-05-28T12:06:43.527Z,3.58
2019-05-28T12:09:12.114Z,4.12
2019-05-28T12:11:40.804Z,3.60
2019-05-28T12:14:09.272Z,3.22
2019-05-28T12:16:37.910Z,3.20
2019-05-28T12:19:06.432Z,3.25
2019-05-28T12:21:37.880Z,2.77
2019-05-28T12:24:06.566Z,3.00
2019-05-28T12:26:35.053Z,3.20
2019-05-28T12:29:03.556Z,3.30
2019-05-28T12:31:50.486Z,3.10
2019-05-28T12:34:19.085Z,3.12
2019-05-28T12:36:47.631Z,3.00
2019-05-28T12:39:16.275Z,3.45
2019-05-28T12:41:59.111Z,3.00
2019-05-28T12:44:17.453Z,3.22
2019-05-28T12:46:45.737Z,2.80
2019-05-28T12:49:14.260Z,3.50
2019-05-28T12:51:44.743Z,2.83
2019-05-28T12:54:13.246Z,3.12
2019-05-28T12:56:51.032Z,3.08
2019-05-28T12:59:19.613Z,3.02
2019-05-28T13:01:48.146Z,3.67
2019-05-28T13:04:16.673Z,3.37
2019-05-28T13:07:00.725Z,3.10
2019-05-28T13:09:29.176Z,3.08
2019-05-28T13:12:06.659Z,3.05
2019-05-28T13:14:35.170Z,3.50
2019-05-28T13:17:03.719Z,3.40
2019-05-28T13:19:32.438Z,3.47
2019-05-28T13:22:19.321Z,3.20
2019-05-28T13:24:47.969Z,3.00
2019-05-28T13:27:29.342Z,3.58
2019-05-28T13:29:57.813Z,3.77
2019-05-28T13:32:26.367Z,3.75
2019-05-28T13:34:55.060Z,3.92
2019-05-28T13:37:24.761Z,4.20
2019-05-28T13:39:58.976Z,4.00
2019-05-28T13:42:27.715Z,3.98
2019-05-28T13:44:56.274Z,4.20
2019-05-28T13:47:33.775Z,3.70
2019-05-28T13:49:55.062Z,4.25
2019-05-28T13:52:23.596Z,4.70
2019-05-28T13:54:52.071Z,4.22
2019-05-28T13:57:20.573Z,4.33
2019-05-28T13:59:49.126Z,4.08
2019-05-28T14:02:17.656Z,4.12
2019-05-28T14:04:53.510Z,4.58
2019-05-28T14:07:22.041Z,4.20
2019-05-28T14:09:50.610Z,4.50
2019-05-28T14:12:19.403Z,4.00
2019-05-28T14:14:47.947Z,3.85
2019-05-28T14:17:16.482Z,4.58
2019-05-28T14:19:57.397Z,4.20
2019-05-28T14:22:33.964Z,3.07
2019-05-28T14:24:56.115Z,2.58
2019-05-28T14:27:30.765Z,2.30
2019-05-28T14:29:59.291Z,2.30
2019-05-28T14:32:28.930Z,2.50
2019-05-28T14:34:57.569Z,2.33
2019-05-28T14:37:26.121Z,2.37
2019-05-28T14:40:07.857Z,3.00
2019-05-28T14:42:38.731Z,2.72
2019-05-28T14:45:09.223Z,2.73
2019-05-28T14:47:38.283Z,2.58
2019-05-28T14:50:12.182Z,2.77
2019-05-28T14:52:40.849Z,2.72
2019-05-28T14:55:09.952Z,2.33
2019-05-28T14:57:38.641Z,2.40
2019-05-28T15:00:09.782Z,2.70
2019-05-28T15:02:40.564Z,2.70
2019-05-28T15:05:10.083Z,2.75
2019-05-28T15:07:38.760Z,2.10
2019-05-28T15:10:19.070Z,3.00
2019-05-28T15:12:47.791Z,2.00
2019-05-28T15:15:34.032Z,1.60
2019-05-28T15:17:47.549Z,2.50
2019-05-28T15:20:16.714Z,2.20
2019-05-28T15:22:48.918Z,2.10
2019-05-28T15:25:17.837Z,1.72
2019-05-28T15:27:46.288Z,2.17
2019-05-28T15:30:15.220Z,1.92
2019-05-28T15:32:53.286Z,2.10
2019-05-28T15:35:21.884Z,2.10
2019-05-28T15:37:50.497Z,2.10
2019-05-28T15:40:19.461Z,1.60
2019-05-28T15:43:06.517Z,1.72
2019-05-28T15:45:33.878Z,1.87
2019-05-28T15:48:02.484Z,1.60
2019-05-28T15:50:31.076Z,1.65
2019-05-28T15:52:59.712Z,1.20
2019-05-28T15:55:28.354Z,2.08
2019-05-28T15:57:57.011Z,2.05
2019-05-28T16:00:28.757Z,1.87
2019-05-28T16:05:25.109Z,1.45
2019-05-28T16:07:53.938Z,1.47
2019-05-28T16:10:23.513Z,1.70
2019-05-28T16:12:52.037Z,1.60
2019-05-28T16:15:20.822Z,1.70
2019-05-28T16:17:49.345Z,1.37
2019-05-28T16:20:18.007Z,1.87
2019-05-28T16:22:46.684Z,1.50
2019-05-28T16:25:17.025Z,2.20
2019-05-28T16:27:45.557Z,1.70
2019-05-28T16:30:14.879Z,1.57
2019-05-28T16:32:55.526Z,1.10
2019-05-28T16:35:24.274Z,1.45
2019-05-28T16:37:52.829Z,1.37
2019-05-28T16:40:33.553Z,1.45
2019-05-28T16:43:02.091Z,1.40
2019-05-28T16:45:30.545Z,1.50
2019-05-28T16:47:59.125Z,1.75
2019-05-28T16:50:27.747Z,2.08
2019-05-28T16:52:56.276Z,1.85
2019-05-28T16:55:24.924Z,1.52
2019-05-28T16:57:53.618Z,1.87
2019-05-28T17:00:22.301Z,1.77
2019-05-28T17:02:51.144Z,1.60
2019-05-28T17:05:19.650Z,1.60
2019-05-28T17:07:48.130Z,1.57
2019-05-28T17:10:32.891Z,1.30
2019-05-28T17:12:59.007Z,1.47
2019-05-28T17:15:27.522Z,1.87
2019-05-28T17:17:56.226Z,1.40
2019-05-28T17:20:24.693Z,1.45
2019-05-28T17:22:55.273Z,1.32
2019-05-28T17:25:23.943Z,1.67
2019-05-28T17:27:52.424Z,1.30
2019-05-28T17:30:24.282Z,1.40
2019-05-28T17:32:51.327Z,1.15
2019-05-28T17:35:32.065Z,1.30
2019-05-28T17:38:01.441Z,1.40
2019-05-28T17:40:47.576Z,1.37
2019-05-28T17:43:03.352Z,1.17
2019-05-28T17:45:50.894Z,1.40
2019-05-28T17:48:19.424Z,1.20
2019-05-28T17:50:47.959Z,1.30
2019-05-28T17:53:16.438Z,1.07
2019-05-28T17:55:50.739Z,1.30
2019-05-28T17:58:19.296Z,1.32
2019-05-28T18:00:48.247Z,1.17
2019-05-28T18:03:16.847Z,1.30
2019-05-28T18:05:45.454Z,0.93
2019-05-28T18:08:14.168Z,1.27
2019-05-28T18:10:42.729Z,1.07
2019-05-28T18:13:11.348Z,1.10
2019-05-28T18:15:39.966Z,1.35
2019-05-28T18:18:23.644Z,1.00
2019-05-28T18:20:52.364Z,1.10
2019-05-28T18:23:20.811Z,1.07
2019-05-28T18:25:49.405Z,1.12
2019-05-28T18:28:18.012Z,1.10
2019-05-28T18:30:46.668Z,1.00
2019-05-28T18:33:15.238Z,1.30
2019-05-28T18:35:43.929Z,1.20
2019-05-28T18:38:12.426Z,1.20
2019-05-28T18:40:42.944Z,1.30
2019-05-28T18:43:11.586Z,1.10
2019-05-28T18:45:40.072Z,1.50
2019-05-28T18:48:08.603Z,1.20
2019-05-28T18:50:50.543Z,1.00
2019-05-28T18:53:18.999Z,0.98
2019-05-28T18:55:48.623Z,1.05
2019-05-28T18:58:17.317Z,1.00
2019-05-28T19:01:10.225Z,0.93
2019-05-28T19:03:38.786Z,0.78
2019-05-28T19:06:07.381Z,0.98
2019-05-28T19:08:35.915Z,0.95
2019-05-28T19:11:04.511Z,0.80
2019-05-28T19:13:33.238Z,0.90
2019-05-28T19:16:01.757Z,1.07
2019-05-28T19:18:30.400Z,0.93
2019-05-28T19:21:08.534Z,1.07
2019-05-28T19:23:37.265Z,1.05
2019-05-28T19:26:23.919Z,0.90
2019-05-28T19:28:52.557Z,1.20
2019-05-28T19:31:36.790Z,1.00
2019-05-28T19:34:05.363Z,1.10
2019-05-28T19:36:39.786Z,1.02
2019-05-28T19:39:08.499Z,1.20
2019-05-28T19:41:53.424Z,0.90
2019-05-28T19:44:14.596Z,1.00
2019-05-28T19:46:46.311Z,1.10
2019-05-28T19:51:42.776Z,1.00
2019-05-28T19:54:11.240Z,1.22
2019-05-28T19:56:39.999Z,1.00
2019-05-28T19:59:08.455Z,1.22
2019-05-28T20:01:37.060Z,1.20
2019-05-28T20:04:05.612Z,1.45
2019-05-28T20:06:34.070Z,1.40
2019-05-28T20:09:02.572Z,1.20
2019-05-28T20:12:12.259Z,1.07
2019-05-28T20:14:34.974Z,1.12
2019-05-28T20:17:03.439Z,1.10
2019-05-28T20:19:35.215Z,1.40
2019-05-28T20:22:02.372Z,1.50
2019-05-28T20:24:31.244Z,1.65
2019-05-28T20:26:59.861Z,1.40
2019-05-28T20:29:28.315Z,1.50
2019-05-28T20:31:56.765Z,1.20
2019-05-28T20:34:25.283Z,1.45
2019-05-28T20:36:53.756Z,1.82
2019-05-28T20:39:22.347Z,1.40
2019-05-28T20:41:50.821Z,1.65
2019-05-28T20:44:19.349Z,1.47
2019-05-28T20:46:47.845Z,1.80
2019-05-28T20:49:16.568Z,1.70
2019-05-28T20:51:45.154Z,1.80
2019-05-28T20:54:19.689Z,1.95
2019-05-28T20:56:50.380Z,2.02
2019-05-28T20:59:18.386Z,1.98
2019-05-28T21:01:47.631Z,1.80
2019-05-28T21:04:16.533Z,1.80
2019-05-28T21:06:45.053Z,1.80
2019-05-28T21:09:13.589Z,2.05
2019-05-28T21:11:42.496Z,2.10
2019-05-28T21:14:12.096Z,2.10
2019-05-28T21:16:40.625Z,2.77
2019-05-28T21:19:09.276Z,2.00
2019-05-28T21:21:49.886Z,2.27
2019-05-28T21:24:37.947Z,2.70
2019-05-28T21:27:06.398Z,2.40
2019-05-28T21:29:34.871Z,2.50
2019-05-28T21:32:16.061Z,2.47
2019-05-28T21:34:44.538Z,2.40
2019-05-28T21:37:13.066Z,2.58
2019-05-28T21:39:41.734Z,2.30
2019-05-28T21:42:10.190Z,2.30
2019-05-28T21:44:38.648Z,2.30
2019-05-28T21:47:07.319Z,2.35
2019-05-28T21:49:35.816Z,2.45
2019-05-28T21:52:07.387Z,2.22
2019-05-28T21:54:35.886Z,2.30
2019-05-28T21:57:04.498Z,2.50
2019-05-28T21:59:32.969Z,2.50
2019-05-28T22:02:22.967Z,2.52
2019-05-28T22:04:51.507Z,2.87
2019-05-28T22:07:20.025Z,2.85
2019-05-28T22:09:51.906Z,2.83
2019-05-28T22:15:15.991Z,3.10
2019-05-28T22:17:44.522Z,2.95
2019-05-28T22:20:13.382Z,3.35
2019-05-28T22:23:00.551Z,3.40
2019-05-28T22:25:29.101Z,3.15
2019-05-28T22:27:58.538Z,3.15
2019-05-28T22:30:27.562Z,3.30
2019-05-28T22:32:56.031Z,3.10
2019-05-28T22:35:24.483Z,3.70
2019-05-28T22:37:53.119Z,3.75
2019-05-28T22:40:22.223Z,4.00
2019-05-28T22:43:08.846Z,3.65
2019-05-28T22:45:42.074Z,4.00
2019-05-28T22:48:15.339Z,3.92
2019-05-28T22:50:47.173Z,4.00
2019-05-28T22:53:26.942Z,3.42
2019-05-28T22:55:55.597Z,4.10
2019-05-28T22:58:43.471Z,3.60
2019-05-28T23:01:15.064Z,4.08
2019-05-28T23:03:43.517Z,3.90
2019-05-28T23:06:11.969Z,3.70
2019-05-28T23:11:14.937Z,4.25
2019-05-28T23:13:46.923Z,3.98
2019-05-28T23:16:13.741Z,4.08
2019-05-28T23:18:42.311Z,4.10
2019-05-28T23:21:11.065Z,3.83
2019-05-28T23:23:39.917Z,4.10
2019-05-28T23:26:09.349Z,3.87
2019-05-28T23:28:50.301Z,4.03
2019-05-28T23:31:22.615Z,3.95
2019-05-28T23:33:51.127Z,3.98
2019-05-28T23:36:19.684Z,3.75
2019-05-28T23:38:48.218Z,3.50
2019-05-28T23:41:34.996Z,3.30
2019-05-28T23:44:05.796Z,3.65
2019-05-28T23:46:34.403Z,3.70
2019-05-28T23:49:04.001Z,3.80
2019-05-28T23:51:47.669Z,3.62
2019-05-28T23:54:16.143Z,3.80
2019-05-28T23:56:44.651Z,3.55
2019-05-28T23:59:13.929Z,3.37
